createdAt,value
2022-12-15T00:02:35.560Z,58.03
2022-12-15T00:05:21.826Z,61.20
2022-12-15T00:08:07.269Z,31.70
2022-12-15T00:10:52.773Z,24.50
2022-12-15T00:13:38.145Z,26.40
2022-12-15T00:16:23.848Z,26.77
2022-12-15T00:19:09.194Z,35.93
2022-12-15T00:21:54.579Z,28.93
2022-12-15T00:24:40.073Z,23.70
2022-12-15T00:27:25.531Z,22.80
2022-12-15T00:30:11.111Z,23.10
2022-12-15T00:32:56.383Z,25.57
2022-12-15T00:35:41.762Z,24.37
2022-12-15T00:38:36.283Z,24.50
2022-12-15T00:41:03.533Z,23.63
2022-12-15T00:43:32.028Z,23.47
2022-12-15T00:46:18.373Z,23.30
2022-12-15T00:48:45.596Z,21.63
2022-12-15T00:51:12.796Z,22.43
2022-12-15T00:53:58.941Z,21.33
2022-12-15T00:56:44.438Z,21.83
2022-12-15T00:59:30.082Z,22.43
2022-12-15T01:02:15.438Z,21.57
2022-12-15T01:05:00.795Z,21.77
2022-12-15T01:07:50.005Z,21.30
2022-12-15T01:10:36.139Z,20.57
2022-12-15T01:13:22.707Z,20.67
2022-12-15T01:16:08.196Z,20.57
2022-12-15T01:18:53.993Z,19.77
2022-12-15T01:21:24.232Z,19.70
2022-12-15T01:23:52.014Z,20.17
2022-12-15T01:26:19.009Z,20.47
2022-12-15T01:28:45.689Z,20.93
2022-12-15T01:31:12.703Z,20.23
2022-12-15T01:33:42.468Z,20.40
2022-12-15T01:36:10.463Z,21.53
2022-12-15T01:38:37.124Z,19.57
2022-12-15T01:41:07.392Z,19.87
2022-12-15T01:43:36.801Z,21.27
2022-12-15T01:46:09.176Z,21.20
2022-12-15T01:48:41.742Z,21.20
2022-12-15T01:51:25.011Z,19.40
2022-12-15T01:54:14.779Z,20.73
2022-12-15T01:56:46.173Z,20.17
2022-12-15T01:59:19.573Z,20.10
2022-12-15T02:01:49.838Z,20.40
2022-12-15T02:04:20.670Z,19.10
2022-12-15T02:06:47.366Z,20.00
2022-12-15T02:09:15.120Z,18.43
2022-12-15T02:12:00.471Z,19.30
2022-12-15T02:14:54.561Z,18.63
2022-12-15T02:17:59.475Z,18.00
2022-12-15T02:21:02.121Z,17.63
2022-12-15T02:23:35.074Z,17.63
2022-12-15T02:26:20.699Z,16.50
2022-12-15T02:29:07.593Z,18.87
2022-12-15T02:31:57.167Z,17.30
2022-12-15T02:34:47.670Z,17.60
2022-12-15T02:37:20.658Z,19.57
2022-12-15T02:39:47.318Z,19.30
2022-12-15T02:42:14.468Z,18.17
2022-12-15T02:44:56.198Z,19.23
2022-12-15T02:48:00.799Z,19.10
2022-12-15T02:50:51.988Z,20.77
2022-12-15T02:53:27.893Z,20.40
2022-12-15T02:56:25.515Z,20.03
2022-12-15T02:59:13.232Z,20.67
2022-12-15T03:01:56.373Z,21.67
2022-12-15T03:04:23.306Z,20.87
2022-12-15T03:07:01.176Z,19.67
2022-12-15T03:09:28.645Z,21.47
2022-12-15T03:11:55.346Z,20.90
2022-12-15T03:14:22.346Z,22.13
2022-12-15T03:16:49.032Z,22.57
2022-12-15T03:19:15.704Z,21.83
2022-12-15T03:21:42.380Z,23.23
2022-12-15T03:24:09.184Z,20.93
2022-12-15T03:26:35.912Z,21.60
2022-12-15T03:29:02.655Z,21.27
2022-12-15T03:31:29.450Z,23.00
2022-12-15T03:33:56.088Z,22.47
2022-12-15T03:36:22.927Z,21.40
2022-12-15T03:38:49.948Z,22.80
2022-12-15T03:41:17.965Z,21.10
2022-12-15T03:43:46.289Z,21.63
2022-12-15T03:46:16.569Z,22.17
2022-12-15T03:48:43.371Z,21.03
2022-12-15T03:51:10.125Z,21.50
2022-12-15T03:53:36.865Z,20.53
2022-12-15T03:56:03.596Z,20.77
2022-12-15T03:58:30.352Z,21.63
2022-12-15T04:00:57.181Z,21.50
2022-12-15T04:03:24.019Z,21.90
2022-12-15T04:05:50.825Z,19.93
2022-12-15T04:08:17.627Z,20.93
2022-12-15T04:10:44.283Z,20.93
2022-12-15T04:13:11.872Z,20.63
2022-12-15T04:15:40.008Z,20.03
2022-12-15T04:18:10.456Z,20.57
2022-12-15T04:20:38.397Z,20.47
2022-12-15T04:23:07.705Z,19.60
2022-12-15T04:25:53.371Z,20.53
2022-12-15T04:28:38.766Z,21.47
2022-12-15T04:31:41.020Z,19.77
2022-12-15T04:34:30.472Z,18.20
2022-12-15T04:37:16.062Z,19.23
2022-12-15T04:40:04.839Z,19.57
2022-12-15T04:42:52.154Z,19.03
2022-12-15T04:45:41.133Z,19.87
2022-12-15T04:48:26.499Z,20.43
2022-12-15T04:51:11.935Z,20.77
2022-12-15T04:53:57.418Z,20.17
2022-12-15T04:56:42.985Z,20.27
2022-12-15T04:59:28.303Z,20.67
2022-12-15T05:02:13.611Z,20.03
2022-12-15T05:04:59.061Z,20.60
2022-12-15T05:07:45.231Z,20.20
2022-12-15T05:10:30.752Z,18.93
2022-12-15T05:13:26.802Z,18.83
2022-12-15T05:16:12.371Z,19.73
2022-12-15T05:18:57.830Z,19.87
2022-12-15T05:21:43.208Z,19.40
2022-12-15T05:24:28.573Z,19.20
2022-12-15T05:27:13.949Z,19.23
2022-12-15T05:29:59.322Z,19.93
2022-12-15T05:32:26.020Z,19.53
2022-12-15T05:34:52.719Z,20.53
2022-12-15T05:37:19.372Z,19.63
2022-12-15T05:39:46.030Z,20.67
2022-12-15T05:42:12.697Z,19.00
2022-12-15T05:44:39.462Z,20.13
2022-12-15T05:47:06.150Z,22.47
2022-12-15T05:49:33.397Z,22.13
2022-12-15T05:52:00.131Z,21.17
2022-12-15T05:54:27.107Z,19.97
2022-12-15T05:56:53.765Z,19.00
2022-12-15T05:59:20.557Z,20.77
2022-12-15T06:01:47.306Z,20.80
2022-12-15T06:04:14.169Z,19.90
2022-12-15T06:06:41.441Z,19.10
2022-12-15T06:09:08.603Z,19.67
2022-12-15T06:11:35.554Z,21.43
2022-12-15T06:14:02.410Z,21.37
2022-12-15T06:16:29.260Z,20.40
2022-12-15T06:18:58.735Z,20.87
2022-12-15T06:21:28.458Z,20.43
2022-12-15T06:23:56.430Z,20.00
2022-12-15T06:26:25.757Z,21.60
2022-12-15T06:28:54.810Z,19.80
2022-12-15T06:31:23.033Z,21.00
2022-12-15T06:33:55.952Z,21.00
2022-12-15T06:36:28.346Z,20.43
2022-12-15T06:38:58.065Z,22.27
2022-12-15T06:41:24.849Z,23.03
2022-12-15T06:43:53.642Z,21.73
2022-12-15T06:46:20.597Z,19.90
2022-12-15T06:48:47.969Z,21.30
2022-12-15T06:51:17.367Z,21.13
2022-12-15T06:53:55.175Z,22.10
2022-12-15T06:56:33.926Z,21.93
2022-12-15T06:59:03.370Z,20.83
2022-12-15T07:01:30.662Z,20.87
2022-12-15T07:04:00.429Z,20.07
2022-12-15T07:06:28.222Z,19.93
2022-12-15T07:08:56.663Z,20.83
2022-12-15T07:11:23.936Z,21.83
2022-12-15T07:13:54.326Z,21.70
2022-12-15T07:16:22.855Z,20.67
2022-12-15T07:18:50.310Z,21.37
2022-12-15T07:21:17.174Z,21.30
2022-12-15T07:24:00.507Z,22.57
2022-12-15T07:26:28.099Z,23.77
2022-12-15T07:28:54.826Z,23.70
2022-12-15T07:31:22.560Z,26.90
2022-12-15T07:33:49.640Z,22.30
2022-12-15T07:36:16.633Z,22.73
2022-12-15T07:38:45.387Z,21.63
2022-12-15T07:41:17.148Z,21.73
2022-12-15T07:43:45.190Z,23.40
2022-12-15T07:46:14.692Z,24.80
2022-12-15T07:48:41.605Z,23.27
2022-12-15T07:51:15.183Z,22.53
2022-12-15T07:53:44.065Z,22.87
2022-12-15T07:56:10.766Z,22.53
2022-12-15T07:58:38.533Z,21.90
2022-12-15T08:01:11.419Z,21.63
2022-12-15T08:03:39.913Z,22.40
2022-12-15T08:06:12.438Z,23.60
2022-12-15T08:08:40.069Z,22.23
2022-12-15T08:11:08.441Z,23.37
2022-12-15T08:14:01.999Z,22.83
2022-12-15T08:16:22.540Z,22.57
2022-12-15T08:18:49.391Z,21.07
2022-12-15T08:21:16.486Z,21.77
2022-12-15T08:23:43.363Z,23.40
2022-12-15T08:26:12.224Z,22.63
2022-12-15T08:28:40.500Z,22.80
2022-12-15T08:31:10.338Z,22.40
2022-12-15T08:33:37.923Z,22.33
2022-12-15T08:36:10.352Z,24.47
2022-12-15T08:38:39.055Z,23.63
2022-12-15T08:41:14.681Z,23.87
2022-12-15T08:43:48.009Z,24.30
2022-12-15T08:46:19.470Z,24.87
2022-12-15T08:48:46.567Z,24.63
2022-12-15T08:51:13.282Z,22.37
2022-12-15T08:53:39.950Z,23.40
2022-12-15T08:56:12.445Z,22.63
2022-12-15T08:58:39.749Z,20.97
2022-12-15T09:01:08.925Z,22.57
2022-12-15T09:03:36.504Z,22.57
2022-12-15T09:06:05.332Z,23.07
2022-12-15T09:08:32.813Z,23.13
2022-12-15T09:11:00.534Z,22.37
2022-12-15T09:13:27.846Z,23.70
2022-12-15T09:16:11.106Z,25.90
2022-12-15T09:18:38.259Z,26.13
2022-12-15T09:21:07.263Z,26.83
2022-12-15T09:23:36.023Z,24.97
2022-12-15T09:26:08.041Z,25.03
2022-12-15T09:28:35.087Z,24.17
2022-12-15T09:31:10.779Z,24.27
2022-12-15T09:33:38.669Z,24.53
2022-12-15T09:36:06.137Z,24.10
2022-12-15T09:38:38.208Z,23.80
2022-12-15T09:41:14.802Z,25.27
2022-12-15T09:44:03.336Z,23.67
2022-12-15T09:46:51.473Z,24.40
2022-12-15T09:49:53.208Z,23.93
2022-12-15T09:52:24.918Z,22.67
2022-12-15T09:54:51.969Z,23.93
2022-12-15T09:57:37.281Z,23.63
2022-12-15T10:00:11.425Z,24.60
2022-12-15T10:03:15.789Z,23.13
2022-12-15T10:08:40.750Z,22.50
2022-12-15T10:11:16.576Z,22.83
2022-12-15T10:13:56.399Z,23.20
2022-12-15T10:16:34.301Z,22.93
2022-12-15T10:19:22.137Z,24.03
2022-12-15T10:21:50.645Z,23.50
2022-12-15T10:27:21.794Z,23.70
2022-12-15T10:30:04.137Z,25.43
2022-12-15T10:32:52.540Z,22.97
2022-12-15T10:35:23.574Z,22.90
2022-12-15T10:37:50.396Z,22.87
2022-12-15T10:40:44.978Z,23.40
2022-12-15T10:43:28.421Z,23.07
2022-12-15T10:46:26.931Z,23.20
2022-12-15T10:49:23.610Z,22.50
2022-12-15T10:52:00.514Z,24.50
2022-12-15T10:54:34.430Z,23.20
2022-12-15T10:57:16.535Z,23.47
2022-12-15T10:59:43.188Z,23.37
2022-12-15T11:02:25.331Z,23.83
2022-12-15T11:04:59.168Z,24.60
2022-12-15T11:07:38.094Z,24.63
2022-12-15T11:10:58.764Z,22.73
2022-12-15T11:13:29.800Z,23.40
2022-12-15T11:16:17.338Z,24.30
2022-12-15T11:18:58.997Z,24.77
2022-12-15T11:21:41.870Z,25.67
2022-12-15T11:24:21.479Z,24.10
2022-12-15T11:27:21.797Z,24.60
2022-12-15T11:30:00.379Z,24.27
2022-12-15T11:32:29.836Z,23.50
2022-12-15T11:34:56.950Z,25.13
2022-12-15T11:37:43.673Z,24.50
2022-12-15T11:40:23.765Z,24.30
2022-12-15T11:42:53.442Z,24.33
2022-12-15T11:46:00.646Z,23.87
2022-12-15T11:48:58.149Z,24.37
2022-12-15T11:51:56.906Z,24.80
2022-12-15T11:54:35.925Z,25.57
2022-12-15T11:57:22.795Z,25.60
2022-12-15T12:00:35.955Z,22.80
2022-12-15T12:03:23.914Z,22.63
2022-12-15T12:06:03.004Z,24.50
2022-12-15T12:08:36.171Z,24.40
2022-12-15T12:11:16.931Z,25.27
2022-12-15T12:14:09.711Z,24.27
2022-12-15T12:17:15.232Z,23.30
2022-12-15T12:19:50.809Z,23.63
2022-12-15T12:22:36.598Z,23.93
2022-12-15T12:25:06.125Z,23.07
2022-12-15T12:27:41.683Z,25.20
2022-12-15T12:30:13.186Z,23.13
2022-12-15T12:32:53.834Z,24.07
2022-12-15T12:35:37.589Z,23.50
2022-12-15T12:38:06.352Z,23.63
2022-12-15T12:41:02.513Z,24.07
2022-12-15T12:43:34.647Z,22.70
2022-12-15T12:46:20.598Z,24.57
2022-12-15T12:48:56.099Z,23.17
2022-12-15T12:51:33.191Z,24.20
2022-12-15T12:54:00.834Z,24.57
2022-12-15T12:56:36.186Z,23.47
2022-12-15T12:59:09.260Z,24.10
2022-12-15T13:01:40.468Z,22.50
2022-12-15T13:04:36.203Z,24.17
2022-12-15T13:07:40.653Z,23.27
2022-12-15T13:10:21.916Z,24.40
2022-12-15T13:12:58.593Z,21.90
2022-12-15T13:15:28.859Z,24.23
2022-12-15T13:18:06.436Z,22.77
2022-12-15T13:20:36.978Z,24.00
2022-12-15T13:23:22.336Z,23.33
2022-12-15T13:25:59.088Z,21.13
2022-12-15T13:28:42.813Z,21.83
2022-12-15T13:31:21.471Z,23.13
2022-12-15T13:33:52.455Z,23.33
2022-12-15T13:36:37.507Z,24.37
2022-12-15T13:39:14.832Z,23.13
2022-12-15T13:42:23.770Z,23.07
2022-12-15T13:47:31.498Z,22.07
2022-12-15T13:50:03.067Z,22.87
2022-12-15T13:53:16.446Z,22.67
2022-12-15T13:55:38.898Z,22.10
2022-12-15T13:58:14.730Z,22.60
2022-12-15T14:00:52.149Z,24.60
2022-12-15T14:03:18.941Z,22.13
2022-12-15T14:05:52.089Z,22.60
2022-12-15T14:08:21.965Z,23.27
2022-12-15T14:10:55.861Z,22.27
2022-12-15T14:13:29.968Z,24.87
2022-12-15T14:16:05.135Z,22.97
2022-12-15T14:18:35.314Z,24.30
2022-12-15T14:21:07.791Z,23.47
2022-12-15T14:24:03.947Z,24.80
2022-12-15T14:26:31.704Z,23.70
2022-12-15T14:29:05.560Z,24.23
2022-12-15T14:31:32.474Z,22.90
2022-12-15T14:34:11.592Z,22.97
2022-12-15T14:36:40.839Z,23.07
2022-12-15T14:39:33.527Z,23.33
2022-12-15T14:42:01.958Z,23.63
2022-12-15T14:47:35.507Z,22.67
2022-12-15T14:50:04.013Z,21.83
2022-12-15T14:52:32.700Z,22.67
2022-12-15T14:55:02.207Z,22.30
2022-12-15T14:57:52.284Z,22.60
2022-12-15T15:00:30.679Z,22.00
2022-12-15T15:03:06.436Z,21.83
2022-12-15T15:03:11.588Z,24.13
2022-12-15T15:03:19.679Z,22.07
2022-12-15T15:05:48.209Z,20.40
2022-12-15T15:08:22.129Z,21.90
2022-12-15T15:10:50.195Z,22.17
2022-12-15T15:13:23.040Z,22.23
2022-12-15T15:16:01.018Z,23.27
2022-12-15T15:18:29.405Z,21.27
2022-12-15T15:21:01.433Z,23.43
2022-12-15T15:23:28.139Z,21.63
2022-12-15T15:25:56.796Z,23.30
2022-12-15T15:28:27.124Z,23.00
2022-12-15T15:30:56.739Z,23.40
2022-12-15T15:33:24.713Z,22.43
2022-12-15T15:35:54.970Z,22.73
2022-12-15T15:38:24.757Z,24.93
2022-12-15T15:40:56.631Z,22.77
2022-12-15T15:43:25.291Z,23.63
2022-12-15T15:46:01.503Z,22.70
2022-12-15T15:48:36.465Z,23.33
2022-12-15T15:51:05.406Z,22.20
2022-12-15T15:53:34.090Z,23.17
2022-12-15T15:56:02.275Z,22.57
2022-12-15T15:58:29.379Z,22.93
2022-12-15T16:00:56.352Z,21.70
2022-12-15T16:03:23.210Z,23.77
2022-12-15T16:05:50.182Z,22.07
2022-12-15T16:08:23.213Z,23.57
2022-12-15T16:10:50.290Z,24.63
2022-12-15T16:13:25.517Z,23.10
2022-12-15T16:15:52.924Z,23.07
2022-12-15T16:18:19.984Z,23.13
2022-12-15T16:20:50.377Z,23.10
2022-12-15T16:23:20.742Z,22.23
2022-12-15T16:25:52.812Z,24.67
2022-12-15T16:28:22.002Z,22.47
2022-12-15T16:30:49.226Z,23.23
2022-12-15T16:33:16.213Z,23.50
2022-12-15T16:35:44.467Z,22.73
2022-12-15T16:38:28.052Z,23.17
2022-12-15T16:40:55.718Z,23.10
2022-12-15T16:43:25.096Z,23.57
2022-12-15T16:45:53.802Z,23.67
2022-12-15T16:48:21.852Z,23.23
2022-12-15T16:50:59.151Z,23.50
2022-12-15T16:53:29.318Z,23.57
2022-12-15T16:56:02.536Z,21.13
2022-12-15T16:58:31.176Z,22.33
2022-12-15T17:00:58.482Z,22.50
2022-12-15T17:03:28.026Z,23.17
2022-12-15T17:05:57.720Z,24.27
2022-12-15T17:08:43.932Z,24.37
2022-12-15T17:11:18.319Z,22.90
2022-12-15T17:13:48.049Z,23.73
2022-12-15T17:16:15.091Z,22.97
2022-12-15T17:18:42.921Z,24.37
2022-12-15T17:21:17.995Z,23.37
2022-12-15T17:23:48.526Z,22.53
2022-12-15T17:26:28.684Z,21.93
2022-12-15T17:28:58.857Z,22.23
2022-12-15T17:31:31.535Z,23.63
2022-12-15T17:34:02.507Z,22.83
2022-12-15T17:36:29.740Z,24.10
2022-12-15T17:39:00.641Z,21.70
2022-12-15T17:41:58.036Z,22.67
2022-12-15T17:44:33.766Z,23.43
2022-12-15T17:47:02.163Z,23.33
2022-12-15T17:49:35.003Z,22.97
2022-12-15T17:52:03.761Z,22.50
2022-12-15T17:54:30.483Z,23.07
2022-12-15T17:56:57.121Z,23.10
2022-12-15T17:59:23.828Z,22.33
2022-12-15T18:01:50.773Z,22.87
2022-12-15T18:04:17.596Z,22.53
2022-12-15T18:06:44.914Z,20.97
2022-12-15T18:09:17.384Z,22.33
2022-12-15T18:11:46.639Z,22.47
2022-12-15T18:14:15.209Z,21.27
2022-12-15T18:16:42.745Z,22.20
2022-12-15T18:19:09.441Z,21.37
2022-12-15T18:21:36.699Z,21.70
2022-12-15T18:24:04.466Z,22.43
2022-12-15T18:26:37.813Z,21.80
2022-12-15T18:29:17.643Z,22.13
2022-12-15T18:31:46.892Z,21.33
2022-12-15T18:34:16.142Z,22.37
2022-12-15T18:36:43.045Z,21.27
2022-12-15T18:39:23.155Z,20.70
2022-12-15T18:41:51.082Z,21.27
2022-12-15T18:44:22.623Z,20.73
2022-12-15T18:46:49.330Z,20.70
2022-12-15T18:49:18.084Z,19.93
2022-12-15T18:51:46.413Z,20.90
2022-12-15T18:54:24.282Z,22.67
2022-12-15T18:56:51.694Z,21.63
2022-12-15T18:59:19.062Z,22.07
2022-12-15T19:01:47.160Z,22.10
2022-12-15T19:04:14.630Z,23.67
2022-12-15T19:06:41.959Z,27.10
2022-12-15T19:09:18.642Z,22.73
2022-12-15T19:12:05.740Z,22.77
2022-12-15T19:14:41.341Z,20.73
2022-12-15T19:17:34.223Z,19.23
2022-12-15T19:20:19.830Z,21.13
2022-12-15T19:22:48.609Z,20.63
2022-12-15T19:25:26.432Z,21.57
2022-12-15T19:27:59.101Z,20.90
2022-12-15T19:30:30.686Z,20.93
2022-12-15T19:32:57.621Z,20.13
2022-12-15T19:35:25.026Z,20.50
2022-12-15T19:37:55.150Z,19.43
2022-12-15T19:40:28.203Z,19.70
2022-12-15T19:42:55.527Z,19.60
2022-12-15T19:45:27.660Z,21.23
2022-12-15T19:47:55.168Z,19.57
2022-12-15T19:50:24.860Z,20.60
2022-12-15T19:52:55.564Z,20.47
2022-12-15T19:55:28.566Z,17.63
2022-12-15T19:57:55.393Z,19.77
2022-12-15T20:00:23.028Z,20.90
2022-12-15T20:02:51.468Z,21.30
2022-12-15T20:05:19.437Z,20.23
2022-12-15T20:07:47.337Z,21.27
2022-12-15T20:10:31.802Z,20.73
2022-12-15T20:13:00.372Z,21.70
2022-12-15T20:15:27.523Z,22.60
2022-12-15T20:17:57.732Z,22.67
2022-12-15T20:20:27.532Z,19.83
2022-12-15T20:22:57.139Z,20.67
2022-12-15T20:25:27.145Z,19.80
2022-12-15T20:27:54.152Z,19.17
2022-12-15T20:30:27.492Z,19.63
2022-12-15T20:32:54.164Z,20.30
2022-12-15T20:35:22.311Z,20.87
2022-12-15T20:37:49.684Z,20.23
2022-12-15T20:40:23.341Z,19.13
2022-12-15T20:42:51.495Z,20.80
2022-12-15T20:45:21.057Z,20.07
2022-12-15T20:47:49.680Z,19.87
2022-12-15T20:50:36.364Z,18.87
2022-12-15T20:53:03.496Z,18.40
2022-12-15T20:55:30.404Z,20.00
2022-12-15T20:57:57.220Z,27.90
2022-12-15T21:00:23.862Z,21.63
2022-12-15T21:02:52.020Z,20.53
2022-12-15T21:05:24.423Z,19.80
2022-12-15T21:07:51.587Z,20.03
2022-12-15T21:10:20.006Z,21.70
2022-12-15T21:12:49.018Z,18.67
2022-12-15T21:15:18.580Z,19.77
2022-12-15T21:17:45.515Z,18.67
2022-12-15T21:20:13.735Z,18.70
2022-12-15T21:22:41.113Z,19.83
2022-12-15T21:25:25.839Z,19.13
2022-12-15T21:27:53.337Z,18.47
2022-12-15T21:30:22.783Z,18.97
2022-12-15T21:32:50.516Z,18.77
2022-12-15T21:35:19.094Z,18.30
2022-12-15T21:37:51.513Z,19.07
2022-12-15T21:40:21.566Z,18.73
2022-12-15T21:42:49.922Z,18.33
2022-12-15T21:45:24.110Z,18.70
2022-12-15T21:48:10.950Z,17.97
2022-12-15T21:50:38.438Z,18.67
2022-12-15T21:53:06.911Z,18.30
2022-12-15T21:55:33.861Z,18.37
2022-12-15T21:58:03.083Z,19.63
2022-12-15T22:00:29.778Z,18.90
2022-12-15T22:02:56.605Z,17.70
2022-12-15T22:05:29.220Z,18.40
2022-12-15T22:08:00.569Z,19.00
2022-12-15T22:10:27.321Z,17.47
2022-12-15T22:12:59.275Z,17.30
2022-12-15T22:15:28.201Z,18.47
2022-12-15T22:17:56.175Z,18.67
2022-12-15T22:20:24.510Z,17.53
2022-12-15T22:22:51.678Z,17.90
2022-12-15T22:25:23.942Z,18.17
2022-12-15T22:27:51.709Z,17.07
2022-12-15T22:30:21.989Z,17.20
2022-12-15T22:32:48.743Z,18.70
2022-12-15T22:35:26.474Z,17.27
2022-12-15T22:37:56.471Z,17.03
2022-12-15T22:40:24.481Z,18.57
2022-12-15T22:42:57.850Z,17.23
2022-12-15T22:45:24.730Z,16.77
2022-12-15T22:47:52.971Z,22.73
2022-12-15T22:50:25.023Z,19.27
2022-12-15T22:52:52.031Z,19.53
2022-12-15T22:55:20.397Z,18.37
2022-12-15T22:57:59.268Z,17.63
2022-12-15T23:00:26.178Z,16.57
2022-12-15T23:02:52.969Z,17.03
2022-12-15T23:05:20.482Z,17.40
2022-12-15T23:07:47.452Z,17.17
2022-12-15T23:10:35.077Z,16.97
2022-12-15T23:13:01.754Z,16.07
2022-12-15T23:15:47.660Z,15.47
2022-12-15T23:18:14.631Z,15.93
2022-12-15T23:20:41.382Z,17.30
2022-12-15T23:23:09.808Z,15.70
2022-12-15T23:25:36.482Z,16.43
2022-12-15T23:28:03.522Z,17.17
2022-12-15T23:30:30.171Z,17.53
2022-12-15T23:32:56.844Z,16.00
2022-12-15T23:35:23.758Z,16.50
2022-12-15T23:37:50.893Z,17.27
2022-12-15T23:40:22.028Z,15.47
2022-12-15T23:42:49.739Z,17.93
2022-12-15T23:45:17.984Z,17.07
2022-12-15T23:47:44.713Z,17.77
2022-12-15T23:50:11.457Z,15.13
2022-12-15T23:52:38.112Z,16.60
2022-12-15T23:55:05.094Z,17.73
2022-12-15T23:57:31.798Z,16.43
2022-12-15T23:59:58.559Z,15.97
